createdAt,value
2024-02-17T00:01:07.450Z,5.30
2024-02-17T00:03:13.643Z,4.67
2024-02-17T00:05:16.974Z,4.70
2024-02-17T00:07:20.216Z,4.17
2024-02-17T00:09:23.819Z,4.43
2024-02-17T00:11:28.447Z,4.70
2024-02-17T00:13:31.683Z,5.13
2024-02-17T00:15:34.906Z,5.00
2024-02-17T00:17:38.966Z,5.10
2024-02-17T00:19:42.462Z,4.97
2024-02-17T00:21:45.722Z,4.87
2024-02-17T00:23:48.873Z,5.20
2024-02-17T00:25:52.204Z,4.90
2024-02-17T00:27:57.293Z,5.00
2024-02-17T00:30:00.450Z,5.30
2024-02-17T00:32:04.388Z,4.57
2024-02-17T00:34:08.104Z,4.53
2024-02-17T00:36:10.508Z,5.33
2024-02-17T00:38:13.824Z,5.27
2024-02-17T00:40:17.530Z,5.90
2024-02-17T00:42:20.655Z,5.47
2024-02-17T00:44:25.505Z,5.60
2024-02-17T00:46:28.682Z,6.20
2024-02-17T00:48:33.667Z,6.50
2024-02-17T00:50:36.855Z,6.13
2024-02-17T00:52:39.989Z,6.10
2024-02-17T00:54:43.122Z,6.70
2024-02-17T00:56:46.433Z,6.83
2024-02-17T00:58:48.880Z,6.47
2024-02-17T01:00:53.819Z,9.20
2024-02-17T01:02:56.749Z,9.23
2024-02-17T01:04:59.986Z,10.70
2024-02-17T01:07:03.316Z,9.10
2024-02-17T01:09:06.588Z,8.87
2024-02-17T01:11:09.879Z,9.47
2024-02-17T01:13:13.954Z,9.97
2024-02-17T01:15:17.508Z,10.90
2024-02-17T01:17:22.428Z,10.10
2024-02-17T01:19:25.701Z,10.10
2024-02-17T01:21:31.978Z,9.60
2024-02-17T01:23:34.699Z,8.30
2024-02-17T01:25:38.131Z,9.20
2024-02-17T01:27:41.860Z,8.30
2024-02-17T01:29:45.192Z,7.87
2024-02-17T01:31:48.270Z,7.37
2024-02-17T01:33:52.850Z,7.03
2024-02-17T01:35:55.398Z,6.70
2024-02-17T01:37:58.564Z,5.30
2024-02-17T01:40:01.929Z,4.30
2024-02-17T01:42:05.421Z,4.20
2024-02-17T01:44:08.677Z,4.47
2024-02-17T01:46:10.991Z,4.60
2024-02-17T01:48:15.312Z,3.73
2024-02-17T01:50:19.407Z,3.60
2024-02-17T01:52:23.293Z,3.27
2024-02-17T01:54:26.522Z,3.50
2024-02-17T01:56:30.871Z,3.23
2024-02-17T01:58:34.202Z,3.40
2024-02-17T02:00:36.476Z,3.50
2024-02-17T02:02:40.307Z,3.20
2024-02-17T02:04:43.468Z,3.57
2024-02-17T02:06:48.057Z,2.97
2024-02-17T02:08:51.681Z,3.90
2024-02-17T02:10:55.998Z,2.90
2024-02-17T02:12:59.251Z,3.10
2024-02-17T02:15:05.804Z,3.20
2024-02-17T02:17:09.896Z,3.70
2024-02-17T02:19:15.486Z,3.60
2024-02-17T02:21:18.864Z,3.27
2024-02-17T02:23:22.541Z,3.33
2024-02-17T02:25:27.146Z,3.90
2024-02-17T02:27:31.823Z,3.50
2024-02-17T02:29:35.221Z,3.63
2024-02-17T02:31:38.448Z,3.77
2024-02-17T02:33:41.696Z,4.07
2024-02-17T02:35:46.013Z,3.80
2024-02-17T02:37:49.301Z,4.07
2024-02-17T02:39:52.689Z,4.13
2024-02-17T02:41:56.072Z,4.10
2024-02-17T02:44:00.574Z,4.00
2024-02-17T02:46:03.729Z,3.80
2024-02-17T02:48:07.814Z,4.13
2024-02-17T02:50:12.177Z,3.70
2024-02-17T02:52:16.404Z,4.30
2024-02-17T02:54:20.379Z,3.70
2024-02-17T02:56:24.148Z,4.37
2024-02-17T02:58:27.413Z,3.80
2024-02-17T03:00:31.192Z,4.03
2024-02-17T03:02:35.355Z,4.70
2024-02-17T03:04:38.613Z,4.70
2024-02-17T03:06:41.947Z,4.90
2024-02-17T03:08:45.114Z,4.33
2024-02-17T03:10:48.284Z,4.60
2024-02-17T03:12:51.478Z,4.20
2024-02-17T03:14:59.935Z,4.60
2024-02-17T03:17:04.640Z,5.10
2024-02-17T03:19:07.979Z,4.70
2024-02-17T03:21:11.399Z,4.40
2024-02-17T03:23:14.667Z,5.03
2024-02-17T03:25:20.468Z,5.03
2024-02-17T03:27:23.935Z,4.27
2024-02-17T03:29:27.378Z,4.67
2024-02-17T03:31:30.568Z,4.90
2024-02-17T03:33:35.388Z,5.23
2024-02-17T03:35:39.663Z,5.83
2024-02-17T03:37:42.812Z,4.83
2024-02-17T03:39:47.170Z,5.50
2024-02-17T03:41:50.704Z,6.47
2024-02-17T03:43:53.945Z,6.87
2024-02-17T03:45:56.184Z,7.03
2024-02-17T03:47:59.485Z,8.50
2024-02-17T03:50:04.373Z,8.00
2024-02-17T03:52:08.774Z,7.90
2024-02-17T03:54:11.933Z,7.53
2024-02-17T03:56:16.468Z,8.30
2024-02-17T03:58:19.639Z,8.80
2024-02-17T04:00:22.921Z,8.27
2024-02-17T04:02:26.141Z,8.50
2024-02-17T04:04:29.335Z,9.17
2024-02-17T04:06:34.712Z,9.20
2024-02-17T04:08:37.912Z,9.03
2024-02-17T04:10:41.106Z,9.20
2024-02-17T04:12:44.572Z,9.20
2024-02-17T04:14:47.766Z,10.03
2024-02-17T04:16:51.036Z,9.90
2024-02-17T04:18:54.458Z,9.90
2024-02-17T04:20:57.723Z,10.70
2024-02-17T04:23:02.348Z,10.40
2024-02-17T04:25:06.851Z,10.03
2024-02-17T04:27:13.000Z,12.40
2024-02-17T04:29:18.036Z,10.30
2024-02-17T04:31:21.438Z,10.00
2024-02-17T04:33:23.929Z,11.20
2024-02-17T04:35:27.527Z,11.73
2024-02-17T04:37:30.757Z,11.47
2024-02-17T04:39:36.017Z,12.37
2024-02-17T04:41:39.104Z,12.43
2024-02-17T04:43:42.333Z,12.03
2024-02-17T04:45:45.579Z,11.83
2024-02-17T04:47:50.011Z,11.47
2024-02-17T04:49:53.442Z,12.37
2024-02-17T04:51:56.651Z,11.80
2024-02-17T04:53:59.733Z,12.50
2024-02-17T04:56:04.461Z,12.70
2024-02-17T04:58:08.176Z,13.57
2024-02-17T05:00:12.162Z,13.47
2024-02-17T05:02:15.431Z,13.13
2024-02-17T05:04:18.669Z,13.20
2024-02-17T05:06:23.290Z,13.77
2024-02-17T05:08:26.457Z,13.53
2024-02-17T05:10:28.710Z,14.30
2024-02-17T05:12:33.313Z,14.17
2024-02-17T05:14:39.332Z,14.20
2024-02-17T05:16:41.720Z,13.70
2024-02-17T05:18:45.678Z,13.90
2024-02-17T05:20:48.937Z,13.30
2024-02-17T05:22:52.240Z,14.13
2024-02-17T05:24:55.640Z,13.37
2024-02-17T05:26:59.187Z,15.30
2024-02-17T05:29:07.001Z,13.63
2024-02-17T05:31:26.646Z,14.60
2024-02-17T05:33:30.114Z,14.50
2024-02-17T05:35:33.461Z,14.03
2024-02-17T05:37:37.068Z,14.67
2024-02-17T05:39:39.221Z,14.73
2024-02-17T05:41:43.459Z,15.40
2024-02-17T05:43:46.745Z,15.30
2024-02-17T05:45:51.318Z,16.33
2024-02-17T05:47:54.536Z,14.73
2024-02-17T05:49:57.878Z,14.87
2024-02-17T05:52:01.068Z,15.90
2024-02-17T05:54:04.201Z,15.33
2024-02-17T05:56:08.180Z,15.40
2024-02-17T05:58:11.290Z,14.80
2024-02-17T06:00:15.384Z,16.10
2024-02-17T06:02:19.889Z,14.57
2024-02-17T06:04:23.267Z,16.13
2024-02-17T06:06:28.166Z,15.27
2024-02-17T06:08:34.359Z,15.60
2024-02-17T06:10:38.336Z,15.00
2024-02-17T06:12:41.581Z,15.03
2024-02-17T06:14:44.852Z,15.23
2024-02-17T06:16:48.032Z,15.30
2024-02-17T06:19:10.288Z,15.33
2024-02-17T06:21:12.948Z,14.77
2024-02-17T06:23:16.135Z,13.70
2024-02-17T06:25:19.254Z,14.30
2024-02-17T06:27:22.440Z,14.33
2024-02-17T06:29:25.604Z,15.20
2024-02-17T06:31:29.111Z,14.10
2024-02-17T06:33:32.958Z,15.00
2024-02-17T06:35:37.749Z,14.47
2024-02-17T06:37:41.688Z,13.47
2024-02-17T06:39:44.894Z,14.83
2024-02-17T06:41:48.061Z,14.23
2024-02-17T06:43:51.595Z,12.57
2024-02-17T06:45:55.044Z,13.33
2024-02-17T06:47:58.959Z,14.90
2024-02-17T06:50:03.266Z,13.97
2024-02-17T06:52:09.010Z,13.40
2024-02-17T06:54:12.351Z,14.23
2024-02-17T06:56:15.632Z,15.57
2024-02-17T06:58:18.759Z,14.30
2024-02-17T07:00:21.888Z,15.23
2024-02-17T07:02:28.082Z,15.17
2024-02-17T07:04:32.002Z,16.00
2024-02-17T07:06:35.173Z,15.50
2024-02-17T07:08:41.925Z,15.37
2024-02-17T07:10:44.278Z,15.10
2024-02-17T07:12:47.569Z,15.10
2024-02-17T07:14:51.246Z,15.40
2024-02-17T07:16:55.868Z,15.50
2024-02-17T07:19:00.698Z,16.00
2024-02-17T07:21:03.366Z,18.07
2024-02-17T07:23:06.746Z,18.03
2024-02-17T07:25:12.273Z,19.57
2024-02-17T07:27:15.585Z,17.73
2024-02-17T07:29:18.071Z,16.07
2024-02-17T07:31:22.051Z,16.30
2024-02-17T07:33:25.349Z,17.10
2024-02-17T07:35:28.537Z,21.33
2024-02-17T07:37:30.625Z,21.13
2024-02-17T07:39:37.037Z,18.60
2024-02-17T07:41:41.625Z,15.87
2024-02-17T07:43:44.809Z,15.83
2024-02-17T07:45:49.971Z,14.03
2024-02-17T07:47:53.302Z,13.80
2024-02-17T07:49:55.813Z,15.40
2024-02-17T07:51:59.166Z,15.33
2024-02-17T07:54:02.415Z,14.87
2024-02-17T07:56:05.388Z,15.23
2024-02-17T07:58:10.019Z,14.50
2024-02-17T08:00:16.132Z,14.30
2024-02-17T08:02:19.767Z,13.73
2024-02-17T08:04:22.954Z,14.47
2024-02-17T08:06:26.991Z,14.10
2024-02-17T08:08:30.206Z,14.23
2024-02-17T08:10:32.483Z,13.33
2024-02-17T08:12:35.759Z,13.40
2024-02-17T08:14:41.898Z,12.40
2024-02-17T08:16:45.308Z,12.97
2024-02-17T08:18:48.706Z,14.07
2024-02-17T08:20:53.182Z,12.40
2024-02-17T08:22:56.477Z,12.70
2024-02-17T08:24:59.714Z,12.67
2024-02-17T08:27:02.906Z,13.47
2024-02-17T08:29:06.169Z,12.20
2024-02-17T08:31:10.718Z,12.70
2024-02-17T08:33:14.744Z,12.70
2024-02-17T08:35:18.030Z,11.90
2024-02-17T08:37:20.282Z,11.60
2024-02-17T08:39:23.499Z,13.37
2024-02-17T08:41:25.837Z,12.00
2024-02-17T08:43:28.991Z,13.10
2024-02-17T08:45:32.321Z,13.10
2024-02-17T08:47:36.895Z,13.60
2024-02-17T08:49:39.237Z,12.93
2024-02-17T08:51:42.593Z,12.53
2024-02-17T08:53:46.059Z,13.10
2024-02-17T08:55:49.219Z,13.00
2024-02-17T08:57:52.418Z,11.80
2024-02-17T08:59:55.710Z,12.80
2024-02-17T09:01:58.898Z,12.40
2024-02-17T09:04:03.585Z,12.17
2024-02-17T09:06:07.186Z,13.00
2024-02-17T09:08:10.317Z,14.03
2024-02-17T09:10:17.014Z,11.63
2024-02-17T09:12:20.381Z,12.17
2024-02-17T09:14:23.577Z,12.17
2024-02-17T09:16:28.645Z,11.00
2024-02-17T09:18:32.220Z,9.80
2024-02-17T09:20:36.847Z,9.97
2024-02-17T09:22:40.091Z,10.03
2024-02-17T09:24:43.226Z,11.17
2024-02-17T09:26:46.378Z,10.50
2024-02-17T09:28:50.181Z,10.07
2024-02-17T09:30:53.534Z,10.23
2024-02-17T09:32:56.882Z,10.20
2024-02-17T09:35:00.249Z,9.37
2024-02-17T09:37:05.705Z,9.20
2024-02-17T09:39:09.010Z,10.17
2024-02-17T09:41:12.199Z,10.23
2024-02-17T09:43:15.415Z,10.10
2024-02-17T09:45:18.717Z,10.10
2024-02-17T09:47:22.318Z,9.60
2024-02-17T09:49:28.098Z,8.97
2024-02-17T09:51:31.802Z,10.23
2024-02-17T09:53:37.788Z,9.17
2024-02-17T09:55:42.832Z,9.20
2024-02-17T09:57:54.224Z,9.63
2024-02-17T09:59:58.648Z,10.17
2024-02-17T10:02:01.091Z,9.73
2024-02-17T10:04:05.450Z,8.27
2024-02-17T10:06:12.425Z,10.43
2024-02-17T10:08:15.876Z,10.20
2024-02-17T10:10:21.585Z,10.43
2024-02-17T10:12:25.724Z,9.30
2024-02-17T10:14:29.280Z,9.33
2024-02-17T10:16:33.661Z,9.23
2024-02-17T10:18:40.937Z,8.03
2024-02-17T10:20:44.900Z,7.90
2024-02-17T10:22:48.673Z,8.20
2024-02-17T10:24:51.912Z,7.60
2024-02-17T10:26:56.875Z,7.20
2024-02-17T10:29:01.258Z,7.70
2024-02-17T10:31:04.935Z,7.83
2024-02-17T10:33:11.321Z,7.57
2024-02-17T10:35:15.951Z,9.63
2024-02-17T10:37:19.405Z,9.77
2024-02-17T10:39:23.429Z,9.63
2024-02-17T10:41:27.918Z,9.10
2024-02-17T10:43:37.415Z,9.20
2024-02-17T10:45:40.031Z,9.33
2024-02-17T10:47:44.748Z,9.43
2024-02-17T10:49:49.715Z,9.43
2024-02-17T10:51:59.025Z,9.37
2024-02-17T10:54:03.576Z,8.70
2024-02-17T10:56:08.466Z,9.30
2024-02-17T10:58:17.097Z,8.97
2024-02-17T11:00:22.437Z,8.50
2024-02-17T11:02:29.783Z,11.35
2024-02-17T11:04:33.713Z,10.47
2024-02-17T11:06:39.249Z,9.17
2024-02-17T11:08:42.726Z,8.30
2024-02-17T11:10:46.307Z,7.63
2024-02-17T11:12:49.525Z,8.50
2024-02-17T11:14:52.884Z,8.27
2024-02-17T11:16:57.619Z,8.57
2024-02-17T11:19:01.880Z,8.90
2024-02-17T11:21:05.401Z,8.70
2024-02-17T11:23:08.956Z,8.20
2024-02-17T11:25:12.507Z,8.00
2024-02-17T11:27:16.090Z,8.47
2024-02-17T11:29:29.025Z,8.10
2024-02-17T11:31:32.771Z,7.80
2024-02-17T11:33:39.256Z,8.50
2024-02-17T11:35:43.495Z,8.40
2024-02-17T11:37:50.856Z,8.67
2024-02-17T11:39:54.088Z,9.37
2024-02-17T11:41:58.488Z,8.20
2024-02-17T11:44:03.856Z,8.87
2024-02-17T11:46:07.127Z,9.23
2024-02-17T11:48:10.521Z,9.10
2024-02-17T11:50:15.694Z,9.60
2024-02-17T11:52:21.777Z,9.13
2024-02-17T11:54:25.162Z,7.60
2024-02-17T11:56:28.502Z,8.40
2024-02-17T11:58:31.740Z,8.23
2024-02-17T12:00:39.203Z,7.50
2024-02-17T12:02:45.177Z,7.20
2024-02-17T12:04:48.432Z,8.23
2024-02-17T12:06:53.795Z,7.40
2024-02-17T12:08:56.983Z,9.00
2024-02-17T12:11:00.552Z,7.70
2024-02-17T12:13:02.799Z,7.63
2024-02-17T12:15:06.508Z,9.40
2024-02-17T12:17:10.209Z,7.87
2024-02-17T12:19:16.138Z,8.80
2024-02-17T12:21:19.696Z,7.30
2024-02-17T12:23:24.255Z,8.60
2024-02-17T12:25:28.833Z,8.47
2024-02-17T12:27:32.373Z,7.07
2024-02-17T12:29:35.574Z,7.00
2024-02-17T12:31:38.772Z,6.97
2024-02-17T12:33:49.169Z,6.60
2024-02-17T12:35:53.819Z,6.60
2024-02-17T12:37:58.074Z,7.07
2024-02-17T12:40:02.019Z,7.60
2024-02-17T12:42:06.932Z,6.27
2024-02-17T12:44:10.101Z,6.90
2024-02-17T12:46:21.102Z,6.10
2024-02-17T12:48:27.546Z,6.20
2024-02-17T12:50:31.265Z,6.50
2024-02-17T12:52:35.235Z,6.40
2024-02-17T12:54:38.797Z,8.80
2024-02-17T12:56:43.342Z,7.93
2024-02-17T12:58:46.971Z,7.70
2024-02-17T13:00:50.210Z,8.17
2024-02-17T13:02:54.687Z,7.57
2024-02-17T13:04:58.810Z,7.03
2024-02-17T13:07:02.397Z,6.57
2024-02-17T13:09:07.092Z,6.90
2024-02-17T13:11:10.399Z,6.90
2024-02-17T13:13:15.044Z,6.50
2024-02-17T13:15:21.572Z,6.33
2024-02-17T13:17:28.415Z,6.70
2024-02-17T13:19:32.086Z,7.50
2024-02-17T13:21:35.931Z,6.33
2024-02-17T13:23:39.102Z,6.07
2024-02-17T13:25:42.339Z,5.83
2024-02-17T13:27:46.838Z,5.67
2024-02-17T13:29:51.538Z,5.40
2024-02-17T13:31:54.803Z,5.90
2024-02-17T13:33:58.145Z,6.40
2024-02-17T13:36:01.476Z,5.90
2024-02-17T13:38:14.152Z,6.20
2024-02-17T13:40:25.503Z,6.53
2024-02-17T13:42:27.827Z,6.70
2024-02-17T13:44:31.089Z,6.13
2024-02-17T13:46:35.548Z,7.07
2024-02-17T13:48:38.923Z,6.53
2024-02-17T13:50:42.122Z,6.97
2024-02-17T13:52:45.308Z,6.37
2024-02-17T13:54:48.893Z,6.60
2024-02-17T13:56:52.257Z,6.43
2024-02-17T13:58:55.639Z,7.03
2024-02-17T14:00:58.990Z,6.97
2024-02-17T14:03:04.758Z,7.70
2024-02-17T14:05:07.495Z,7.70
2024-02-17T14:07:10.682Z,7.00
2024-02-17T14:09:13.902Z,7.87
2024-02-17T14:11:16.281Z,6.97
2024-02-17T14:13:19.618Z,6.23
2024-02-17T14:15:23.235Z,6.57
2024-02-17T14:17:28.443Z,6.30
2024-02-17T14:19:35.026Z,6.10
2024-02-17T14:21:38.922Z,6.70
2024-02-17T14:23:42.169Z,7.47
2024-02-17T14:25:46.001Z,7.53
2024-02-17T14:27:49.183Z,8.10
2024-02-17T14:29:56.772Z,7.47
2024-02-17T14:32:00.115Z,8.43
2024-02-17T14:34:03.427Z,7.60
2024-02-17T14:36:11.141Z,7.50
2024-02-17T14:38:15.523Z,6.90
2024-02-17T14:40:18.688Z,7.47
2024-02-17T14:42:22.022Z,7.87
2024-02-17T14:44:25.200Z,6.93
2024-02-17T14:46:35.474Z,7.30
2024-02-17T14:48:43.936Z,7.30
2024-02-17T14:50:47.877Z,6.90
2024-02-17T14:52:54.110Z,5.70
2024-02-17T14:54:57.489Z,5.90
2024-02-17T14:57:00.684Z,5.93
2024-02-17T14:59:04.315Z,6.10
2024-02-17T15:01:07.588Z,4.80
2024-02-17T15:03:10.908Z,5.60
2024-02-17T15:05:14.322Z,5.50
2024-02-17T15:07:19.343Z,5.80
2024-02-17T15:09:24.340Z,5.43
2024-02-17T15:11:27.547Z,4.87
2024-02-17T15:13:30.863Z,4.90
2024-02-17T15:15:34.127Z,4.70
2024-02-17T15:17:38.646Z,4.33
2024-02-17T15:19:41.564Z,4.07
2024-02-17T15:21:44.871Z,4.07
2024-02-17T15:23:48.391Z,4.03
2024-02-17T15:25:52.960Z,3.70
2024-02-17T15:27:57.205Z,4.20
2024-02-17T15:30:00.354Z,5.17
2024-02-17T15:32:03.586Z,4.50
2024-02-17T15:34:07.145Z,4.93
2024-02-17T15:36:12.018Z,5.83
2024-02-17T15:38:15.633Z,4.80
2024-02-17T15:40:18.721Z,4.60
2024-02-17T15:42:23.325Z,4.73
2024-02-17T15:44:26.450Z,4.40
2024-02-17T15:46:29.613Z,4.70
2024-02-17T15:48:34.446Z,3.93
2024-02-17T15:50:38.049Z,4.83
2024-02-17T15:52:41.186Z,5.00
2024-02-17T15:54:44.328Z,5.10
2024-02-17T15:56:47.500Z,5.00
2024-02-17T15:58:52.127Z,5.70
2024-02-17T16:00:57.945Z,6.10
2024-02-17T16:03:01.247Z,5.77
2024-02-17T16:05:04.613Z,5.17
2024-02-17T16:07:07.847Z,4.80
2024-02-17T16:09:11.400Z,5.87
2024-02-17T16:11:14.031Z,5.20
2024-02-17T16:13:18.886Z,5.70
2024-02-17T16:15:23.663Z,5.07
2024-02-17T16:17:27.192Z,5.10
2024-02-17T16:19:29.633Z,5.07
2024-02-17T16:21:36.181Z,4.97
2024-02-17T16:23:39.696Z,4.80
2024-02-17T16:25:42.895Z,4.60
2024-02-17T16:27:46.099Z,4.77
2024-02-17T16:29:49.374Z,5.17
2024-02-17T16:31:54.975Z,4.80
2024-02-17T16:33:58.538Z,4.53
2024-02-17T16:36:03.657Z,5.10
2024-02-17T16:38:07.239Z,4.90
2024-02-17T16:40:12.117Z,4.63
2024-02-17T16:42:15.432Z,5.00
2024-02-17T16:44:19.704Z,5.50
2024-02-17T16:46:22.931Z,7.30
2024-02-17T16:48:27.880Z,5.30
2024-02-17T16:50:31.175Z,19.57
2024-02-17T16:52:34.298Z,10.57
2024-02-17T16:54:36.566Z,11.13
2024-02-17T16:56:41.190Z,8.83
2024-02-17T16:58:44.916Z,16.20
2024-02-17T17:00:48.142Z,13.50
2024-02-17T17:02:50.875Z,13.30
2024-02-17T17:04:58.009Z,9.60
2024-02-17T17:07:02.202Z,9.07
2024-02-17T17:09:05.502Z,9.33
2024-02-17T17:11:08.764Z,7.83
2024-02-17T17:13:12.005Z,7.93
2024-02-17T17:15:15.433Z,7.37
2024-02-17T17:17:18.647Z,7.47
2024-02-17T17:19:21.993Z,7.20
2024-02-17T17:21:27.243Z,6.87
2024-02-17T17:23:30.413Z,6.17
2024-02-17T17:25:32.724Z,6.50
2024-02-17T17:27:36.218Z,7.23
2024-02-17T17:29:39.588Z,11.00
2024-02-17T17:31:43.033Z,16.67
2024-02-17T17:33:46.548Z,12.40
2024-02-17T17:35:50.172Z,8.87
2024-02-17T17:37:55.029Z,7.63
2024-02-17T17:39:58.274Z,6.67
2024-02-17T17:42:01.650Z,4.80
2024-02-17T17:44:04.192Z,5.37
2024-02-17T17:46:09.578Z,5.60
2024-02-17T17:48:13.458Z,5.80
2024-02-17T17:50:22.778Z,6.53
2024-02-17T17:52:26.325Z,6.10
2024-02-17T17:54:30.996Z,6.07
2024-02-17T17:56:35.888Z,6.40
2024-02-17T17:58:39.092Z,10.30
2024-02-17T18:00:42.522Z,13.27
2024-02-17T18:02:47.120Z,10.63
2024-02-17T18:04:50.536Z,10.30
2024-02-17T18:06:53.907Z,7.60
2024-02-17T18:08:58.452Z,7.77
2024-02-17T18:11:03.546Z,8.17
2024-02-17T18:13:06.982Z,9.37
2024-02-17T18:15:11.002Z,10.60
2024-02-17T18:17:14.302Z,13.10
2024-02-17T18:19:19.070Z,7.57
2024-02-17T18:21:23.473Z,5.37
2024-02-17T18:23:26.649Z,5.47
2024-02-17T18:25:29.826Z,8.43
2024-02-17T18:27:34.314Z,7.83
2024-02-17T18:29:37.425Z,10.10
2024-02-17T18:31:40.591Z,9.70
2024-02-17T18:33:45.168Z,14.10
2024-02-17T18:35:49.153Z,13.90
2024-02-17T18:37:52.731Z,13.80
2024-02-17T18:39:54.920Z,14.80
2024-02-17T18:41:58.342Z,17.30
2024-02-17T18:44:07.347Z,15.20
2024-02-17T18:46:11.442Z,12.63
2024-02-17T18:48:13.862Z,11.97
2024-02-17T18:50:17.495Z,11.00
2024-02-17T18:52:22.175Z,10.47
2024-02-17T18:54:25.442Z,9.20
2024-02-17T18:56:28.614Z,9.50
2024-02-17T18:58:30.808Z,9.00
2024-02-17T19:00:35.424Z,10.30
2024-02-17T19:02:38.699Z,11.67
2024-02-17T19:04:42.106Z,11.80
2024-02-17T19:06:45.384Z,10.13
2024-02-17T19:08:49.662Z,10.50
2024-02-17T19:10:52.908Z,24.10
2024-02-17T19:12:56.287Z,26.07
2024-02-17T19:14:59.509Z,20.07
2024-02-17T19:17:04.587Z,13.70
2024-02-17T19:19:07.999Z,10.00
2024-02-17T19:21:10.407Z,11.80
2024-02-17T19:23:18.566Z,9.40
2024-02-17T19:25:23.259Z,10.57
2024-02-17T19:27:26.458Z,9.60
2024-02-17T19:29:29.672Z,8.87
2024-02-17T19:31:33.124Z,10.00
2024-02-17T19:33:38.661Z,10.90
2024-02-17T19:35:42.419Z,8.87
2024-02-17T19:37:45.644Z,9.27
2024-02-17T19:39:49.041Z,8.70
2024-02-17T19:41:51.304Z,10.20
2024-02-17T19:43:54.715Z,8.77
2024-02-17T19:45:58.065Z,9.10
2024-02-17T19:48:01.619Z,8.27
2024-02-17T19:50:06.374Z,8.90
2024-02-17T19:52:09.769Z,11.50
2024-02-17T19:54:13.111Z,12.67
2024-02-17T19:56:17.492Z,12.57
2024-02-17T19:58:20.023Z,13.30
2024-02-17T20:00:23.240Z,12.10
2024-02-17T20:02:26.407Z,12.47
2024-02-17T20:04:30.305Z,11.13
2024-02-17T20:06:36.167Z,11.30
2024-02-17T20:08:39.438Z,13.00
2024-02-17T20:10:44.321Z,13.03
2024-02-17T20:12:47.736Z,14.60
2024-02-17T20:14:51.085Z,13.30
2024-02-17T20:16:55.896Z,10.73
2024-02-17T20:18:59.204Z,21.07
2024-02-17T20:21:06.730Z,12.40
2024-02-17T20:23:11.419Z,11.93
2024-02-17T20:25:14.627Z,11.47
2024-02-17T20:27:17.806Z,11.93
2024-02-17T20:29:21.016Z,11.00
2024-02-17T20:31:25.521Z,13.37
2024-02-17T20:33:30.212Z,13.60
2024-02-17T20:35:35.840Z,14.47
2024-02-17T20:37:39.049Z,11.90
2024-02-17T20:39:43.771Z,12.27
2024-02-17T20:41:51.891Z,11.40
2024-02-17T20:43:56.404Z,10.77
2024-02-17T20:45:59.651Z,10.60
2024-02-17T20:48:03.153Z,7.50
2024-02-17T20:50:07.876Z,8.93
2024-02-17T20:52:11.295Z,12.00
2024-02-17T20:54:17.836Z,11.57
2024-02-17T20:56:22.901Z,14.00
2024-02-17T20:58:26.168Z,10.53
2024-02-17T21:00:29.498Z,12.20
2024-02-17T21:02:38.068Z,10.70
2024-02-17T21:04:40.824Z,10.70
2024-02-17T21:06:44.186Z,11.60
2024-02-17T21:08:47.371Z,11.33
2024-02-17T21:10:50.684Z,13.53
2024-02-17T21:12:55.278Z,13.87
2024-02-17T21:14:57.709Z,12.77
2024-02-17T21:17:01.002Z,13.97
2024-02-17T21:19:03.749Z,14.40
2024-02-17T21:21:07.166Z,13.13
2024-02-17T21:23:10.744Z,12.40
2024-02-17T21:25:14.912Z,13.53
2024-02-17T21:27:18.831Z,9.47
2024-02-17T21:29:23.500Z,9.67
2024-02-17T21:31:25.966Z,10.83
2024-02-17T21:33:29.279Z,8.00
2024-02-17T21:35:32.591Z,11.03
2024-02-17T21:37:35.812Z,35.30
2024-02-17T21:39:39.528Z,13.27
2024-02-17T21:41:42.309Z,10.63
2024-02-17T21:43:45.590Z,10.10
2024-02-17T21:45:51.663Z,9.70
2024-02-17T21:47:55.101Z,9.73
2024-02-17T21:49:58.607Z,10.30
2024-02-17T21:52:02.167Z,10.30
2024-02-17T21:54:05.621Z,8.47
2024-02-17T21:56:09.332Z,9.47
2024-02-17T21:58:12.395Z,8.60
2024-02-17T22:00:16.353Z,9.40
2024-02-17T22:02:21.054Z,9.07
2024-02-17T22:04:24.418Z,7.97
2024-02-17T22:06:27.967Z,10.20
2024-02-17T22:08:31.194Z,12.60
2024-02-17T22:10:34.372Z,13.20
2024-02-17T22:12:37.577Z,11.13
2024-02-17T22:14:40.673Z,11.27
2024-02-17T22:16:43.772Z,12.63
2024-02-17T22:18:48.470Z,13.13
2024-02-17T22:20:51.758Z,12.03
2024-02-17T22:22:53.928Z,13.73
2024-02-17T22:24:57.422Z,12.43
2024-02-17T22:27:00.676Z,12.93
2024-02-17T22:29:06.144Z,10.90
2024-02-17T22:31:09.332Z,12.13
2024-02-17T22:33:12.888Z,9.90
2024-02-17T22:35:17.503Z,10.00
2024-02-17T22:37:20.656Z,11.33
2024-02-17T22:39:24.629Z,11.23
2024-02-17T22:41:28.095Z,16.20
2024-02-17T22:43:31.522Z,12.40
2024-02-17T22:45:34.655Z,12.93
2024-02-17T22:47:37.881Z,15.03
2024-02-17T22:49:40.103Z,12.30
2024-02-17T22:51:44.695Z,13.73
2024-02-17T22:53:47.924Z,13.23
2024-02-17T22:55:51.404Z,12.30
2024-02-17T22:57:54.706Z,10.57
2024-02-17T22:59:57.998Z,9.43
2024-02-17T23:02:01.229Z,10.50
2024-02-17T23:04:06.303Z,10.10
2024-02-17T23:06:10.730Z,10.00
2024-02-17T23:08:15.637Z,9.70
2024-02-17T23:10:19.082Z,10.83
2024-02-17T23:12:22.474Z,10.27
2024-02-17T23:14:25.917Z,13.30
2024-02-17T23:16:29.316Z,13.80
2024-02-17T23:18:32.805Z,15.70
2024-02-17T23:20:36.146Z,10.70
2024-02-17T23:22:38.325Z,9.50
2024-02-17T23:24:44.073Z,9.10
2024-02-17T23:26:47.261Z,10.07
2024-02-17T23:28:50.450Z,9.30
2024-02-17T23:30:53.685Z,8.90
2024-02-17T23:32:57.389Z,8.80
2024-02-17T23:34:59.797Z,8.70
2024-02-17T23:37:03.457Z,8.70
2024-02-17T23:39:07.004Z,9.53
2024-02-17T23:41:11.684Z,9.10
2024-02-17T23:43:14.916Z,8.80
2024-02-17T23:45:20.738Z,8.43
2024-02-17T23:47:23.996Z,8.73
2024-02-17T23:49:28.089Z,9.07
2024-02-17T23:51:31.521Z,8.20
2024-02-17T23:53:35.116Z,8.13
2024-02-17T23:55:38.243Z,8.33
2024-02-17T23:57:42.877Z,8.33
2024-02-17T23:59:46.296Z,8.40
